Hovedside
METAR-TAF:

METAR-TAF

Lufthavner :

Karleby, Finland

Kronoby lufthavn

breddegrad: 63-43N, lengdegrad: 023-09E, høyde over havet: 25 m

Gjeldene værobservasjon

Denne rapporten ble laget for 37 minutter siden, klokken 13:50 UTC
Vind 5 kt fra Øst-sørøst
Temperatur -5°C
Luftfuktighet 86%
Trykk 1017 hPa
Sikt 10 km eller mer
Spredte skyer i en høyde av 1400 ft

METAR: EFKK 221350Z 11005KT 9999 SCT014 M05/M07 Q1017

Tid: 16:27 (14:27 UTC)

Varsel

Denne rapporten ble laget for 3 timer og 4 minutter siden, klokken 11:23 UTC
Varsel gyldig fra 22. klokken 12 UTC til 22. klokken 21 UTC
Vind 12 kt fra Øst-sørøst
Sikt 10 km eller mer
Brutte skyer i en høyde av 1500 ft
Midlertidig
fra 22. klokken 12 UTC til 22. klokken 14 UTC
Sikt: 7000 m
Brutte skyer i en høyde av 1200 ft
lette snøbyger

TAF: EFKK 221123Z 2212/2221 11012KT 9999 BKN015 TEMPO 2212/2214 7000 -SHSN BKN012

Værobservasjoner og værvarsel for over 4000 flyplasser (METAR- og TAF-rapporter).

Tilgjengelige stasjoner er representert av de røde og gule prikkene på kartet.

Hold musepekeren over prikken for å se navnet på stasjonen.

Klikk så for å se værobservasjoner og -varsler.

For å forandre kartet kan du klikke på den grønne knappen med svart kryss for å zoome inn, på den grønne knappen med strek for å zoome ut, eller på de grønne pilene for å se tilstøtende kart.


METAR-TAF: